createdAt,value
2019-05-11T00:00:39.928Z,8.00
2019-05-11T00:03:08.385Z,8.10
2019-05-11T00:05:36.965Z,8.10
2019-05-11T00:08:05.421Z,8.10
2019-05-11T00:10:33.938Z,8.20
2019-05-11T00:13:02.504Z,8.20
2019-05-11T00:15:30.995Z,8.20
2019-05-11T00:17:59.533Z,8.20
2019-05-11T00:20:28.125Z,8.30
2019-05-11T00:22:56.646Z,8.20
2019-05-11T00:25:25.122Z,8.20
2019-05-11T00:27:53.575Z,8.30
2019-05-11T00:30:22.082Z,8.30
2019-05-11T00:32:50.764Z,8.30
2019-05-11T00:35:19.201Z,8.20
2019-05-11T00:37:47.646Z,8.30
2019-05-11T00:40:16.530Z,8.30
2019-05-11T00:42:44.972Z,8.30
2019-05-11T00:45:13.834Z,8.20
2019-05-11T00:47:42.315Z,8.20
2019-05-11T00:50:11.703Z,8.20
2019-05-11T00:52:40.182Z,8.10
2019-05-11T00:55:08.879Z,8.10
2019-05-11T00:57:37.561Z,8.10
2019-05-11T01:00:09.193Z,8.10
2019-05-11T01:02:37.637Z,8.00
2019-05-11T01:05:07.953Z,8.00
2019-05-11T01:07:36.627Z,8.00
2019-05-11T01:10:21.875Z,8.00
2019-05-11T01:12:37.254Z,7.90
2019-05-11T01:15:06.682Z,7.90
2019-05-11T01:17:35.215Z,7.90
2019-05-11T01:20:05.200Z,7.90
2019-05-11T01:22:33.716Z,7.80
2019-05-11T01:25:02.159Z,7.80
2019-05-11T01:27:30.616Z,7.80
2019-05-11T01:29:59.094Z,7.70
2019-05-11T01:32:27.590Z,7.70
2019-05-11T01:34:56.043Z,7.70
2019-05-11T01:37:24.551Z,7.60
2019-05-11T01:39:52.999Z,7.60
2019-05-11T01:42:21.455Z,7.50
2019-05-11T01:44:50.042Z,7.50
2019-05-11T01:47:18.563Z,7.40
2019-05-11T01:49:47.019Z,7.40
2019-05-11T01:52:15.531Z,7.30
2019-05-11T01:54:44.042Z,7.30
2019-05-11T01:57:12.494Z,7.20
2019-05-11T01:59:40.996Z,7.20
2019-05-11T02:02:09.487Z,7.10
2019-05-11T02:04:37.956Z,7.10
2019-05-11T02:07:06.595Z,7.00
2019-05-11T02:09:35.179Z,7.00
2019-05-11T02:12:03.623Z,7.00
2019-05-11T02:14:32.125Z,7.00
2019-05-11T02:17:00.966Z,7.00
2019-05-11T02:19:29.414Z,6.90
2019-05-11T02:21:57.863Z,6.90
2019-05-11T02:24:26.359Z,6.90
2019-05-11T02:26:54.807Z,6.80
2019-05-11T02:29:23.318Z,6.80
2019-05-11T02:31:51.773Z,6.70
2019-05-11T02:34:20.291Z,6.70
2019-05-11T02:36:48.819Z,6.70
2019-05-11T02:39:17.338Z,6.70
2019-05-11T02:41:45.782Z,6.60
2019-05-11T02:44:14.300Z,6.60
2019-05-11T02:46:42.742Z,6.60
2019-05-11T02:49:11.186Z,6.60
2019-05-11T02:51:40.274Z,6.50
2019-05-11T02:54:10.269Z,6.50
2019-05-11T02:56:38.745Z,6.50
2019-05-11T02:59:07.294Z,6.50
2019-05-11T03:01:35.818Z,6.50
2019-05-11T03:04:04.329Z,6.50
2019-05-11T03:06:32.773Z,6.50
2019-05-11T03:09:01.306Z,6.50
2019-05-11T03:11:29.833Z,6.50
2019-05-11T03:13:58.347Z,6.50
2019-05-11T03:16:26.829Z,6.50
2019-05-11T03:18:55.281Z,6.60
2019-05-11T03:21:23.866Z,6.60
2019-05-11T03:23:52.324Z,6.60
2019-05-11T03:26:20.771Z,6.60
2019-05-11T03:28:49.333Z,6.70
2019-05-11T03:31:17.912Z,6.70
2019-05-11T03:33:46.357Z,6.70
2019-05-11T03:36:14.891Z,6.70
2019-05-11T03:38:43.501Z,6.70
2019-05-11T03:41:11.993Z,6.70
2019-05-11T03:43:40.515Z,6.80
2019-05-11T03:46:09.033Z,6.80
2019-05-11T03:48:37.570Z,6.80
2019-05-11T03:51:06.086Z,6.80
2019-05-11T03:53:34.569Z,6.90
2019-05-11T03:56:03.037Z,6.90
2019-05-11T03:58:31.746Z,6.90
2019-05-11T04:01:00.359Z,7.00
2019-05-11T04:03:28.869Z,7.00
2019-05-11T04:05:57.323Z,7.00
2019-05-11T04:08:25.878Z,7.00
2019-05-11T04:10:54.344Z,7.10
2019-05-11T04:13:23.052Z,7.10
2019-05-11T04:15:51.495Z,7.20
2019-05-11T04:18:20.026Z,7.20
2019-05-11T04:20:48.473Z,7.20
2019-05-11T04:23:16.932Z,7.30
2019-05-11T04:25:45.442Z,7.40
2019-05-11T04:28:14.029Z,7.40
2019-05-11T04:30:42.483Z,7.50
2019-05-11T04:33:11.019Z,7.60
2019-05-11T04:35:39.541Z,7.60
2019-05-11T04:38:08.067Z,7.70
2019-05-11T04:40:36.528Z,7.80
2019-05-11T04:43:05.018Z,7.90
2019-05-11T04:45:33.469Z,8.00
2019-05-11T04:48:01.997Z,8.20
2019-05-11T04:50:30.514Z,8.30
2019-05-11T04:52:58.963Z,8.50
2019-05-11T04:55:27.462Z,8.60
2019-05-11T04:57:55.919Z,8.60
2019-05-11T05:00:24.688Z,8.80
2019-05-11T05:02:53.219Z,8.80
2019-05-11T05:05:21.879Z,8.90
2019-05-11T05:07:50.712Z,9.00
2019-05-11T05:10:21.896Z,9.10
2019-05-11T05:12:51.365Z,9.20
2019-05-11T05:15:19.798Z,9.30
2019-05-11T05:17:48.328Z,9.30
2019-05-11T05:20:17.136Z,9.30
2019-05-11T05:22:45.618Z,9.40
2019-05-11T05:25:14.175Z,9.50
2019-05-11T05:27:42.690Z,9.50
2019-05-11T05:30:11.537Z,9.50
2019-05-11T05:32:40.169Z,9.50
2019-05-11T05:35:08.755Z,9.40
2019-05-11T05:37:37.249Z,9.50
2019-05-11T05:40:06.533Z,9.60
2019-05-11T05:42:35.053Z,9.70
2019-05-11T05:45:05.567Z,9.70
2019-05-11T05:47:33.244Z,9.80
2019-05-11T05:50:01.747Z,9.90
2019-05-11T05:52:30.396Z,10.00
2019-05-11T05:54:58.841Z,10.10
2019-05-11T05:57:27.283Z,10.20
2019-05-11T05:59:55.761Z,10.40
2019-05-11T06:02:24.337Z,10.50
2019-05-11T06:04:52.781Z,10.70
2019-05-11T06:07:21.343Z,10.90
2019-05-11T06:09:49.828Z,11.00
2019-05-11T06:12:18.304Z,11.20
2019-05-11T06:14:46.850Z,11.30
2019-05-11T06:17:15.311Z,11.40
2019-05-11T06:19:43.844Z,11.50
2019-05-11T06:22:12.290Z,11.40
2019-05-11T06:24:40.752Z,11.50
2019-05-11T06:27:09.338Z,11.30
2019-05-11T06:29:37.791Z,11.30
2019-05-11T06:32:06.235Z,11.20
2019-05-11T06:34:34.713Z,11.30
2019-05-11T06:37:03.495Z,11.40
2019-05-11T06:39:31.949Z,11.50
2019-05-11T06:42:00.472Z,11.60
2019-05-11T06:44:28.954Z,11.60
2019-05-11T06:46:57.471Z,11.60
2019-05-11T06:49:25.921Z,11.70
2019-05-11T06:51:54.495Z,11.70
2019-05-11T06:54:22.951Z,11.70
2019-05-11T06:56:51.419Z,11.80
2019-05-11T06:59:19.974Z,11.90
2019-05-11T07:01:48.417Z,12.00
2019-05-11T07:04:16.926Z,11.90
2019-05-11T07:06:45.375Z,12.00
2019-05-11T07:09:13.879Z,12.00
2019-05-11T07:11:42.609Z,12.10
2019-05-11T07:14:20.384Z,12.10
2019-05-11T07:16:41.298Z,12.30
2019-05-11T07:19:09.798Z,12.30
2019-05-11T07:21:38.313Z,12.40
2019-05-11T07:24:06.775Z,12.50
2019-05-11T07:26:35.227Z,12.60
2019-05-11T07:29:03.844Z,12.70
2019-05-11T07:31:32.302Z,12.80
2019-05-11T07:34:00.754Z,12.90
2019-05-11T07:36:29.252Z,12.90
2019-05-11T07:38:58.153Z,12.90
2019-05-11T07:41:28.145Z,13.00
2019-05-11T07:43:58.982Z,13.00
2019-05-11T07:46:28.792Z,13.10
2019-05-11T07:48:58.482Z,13.10
2019-05-11T07:51:28.795Z,13.20
2019-05-11T07:53:57.918Z,13.20
2019-05-11T07:56:28.461Z,13.10
2019-05-11T07:58:58.017Z,13.20
2019-05-11T08:01:28.213Z,13.20
2019-05-11T08:03:58.626Z,13.20
2019-05-11T08:06:28.556Z,13.30
2019-05-11T08:08:58.882Z,13.30
2019-05-11T08:11:30.740Z,13.20
2019-05-11T08:13:58.419Z,13.40
2019-05-11T08:16:28.495Z,13.50
2019-05-11T08:18:58.839Z,13.60
2019-05-11T08:21:28.339Z,13.70
2019-05-11T08:23:58.721Z,13.70
2019-05-11T08:26:28.249Z,13.80
2019-05-11T08:28:57.918Z,13.90
2019-05-11T08:32:03.306Z,14.00
2019-05-11T08:34:31.800Z,13.90
2019-05-11T08:37:01.240Z,14.00
2019-05-11T08:39:29.676Z,14.10
2019-05-11T08:41:58.980Z,14.10
2019-05-11T08:44:28.757Z,14.30
2019-05-11T08:46:58.204Z,14.30
2019-05-11T08:49:28.760Z,14.30
2019-05-11T08:51:57.985Z,14.40
2019-05-11T08:54:28.660Z,14.50
2019-05-11T08:56:58.786Z,14.80
2019-05-11T08:59:27.896Z,14.80
2019-05-11T09:01:58.794Z,14.90
2019-05-11T09:04:28.826Z,15.00
2019-05-11T09:06:58.671Z,15.10
2019-05-11T09:09:28.721Z,15.20
2019-05-11T09:11:58.825Z,15.30
2019-05-11T09:14:28.380Z,15.50
2019-05-11T09:16:57.894Z,15.60
2019-05-11T09:19:28.445Z,15.40
2019-05-11T09:21:58.845Z,15.40
2019-05-11T09:24:28.192Z,15.70
2019-05-11T09:26:58.530Z,16.10
2019-05-11T09:29:28.159Z,16.30
2019-05-11T09:31:58.321Z,16.30
2019-05-11T09:34:28.634Z,16.30
2019-05-11T09:36:58.697Z,16.40
2019-05-11T09:39:28.029Z,16.70
2019-05-11T09:41:58.467Z,16.80
2019-05-11T09:44:28.895Z,16.90
2019-05-11T09:46:59.987Z,17.20
2019-05-11T09:49:42.966Z,17.50
2019-05-11T09:51:58.955Z,17.50
2019-05-11T09:54:28.986Z,16.70
2019-05-11T09:56:57.959Z,16.50
2019-05-11T09:59:28.261Z,16.60
2019-05-11T10:01:58.776Z,16.80
2019-05-11T10:04:28.900Z,17.00
2019-05-11T10:06:58.568Z,17.00
2019-05-11T10:09:27.975Z,17.20
2019-05-11T10:11:58.425Z,16.90
2019-05-11T10:14:28.899Z,17.10
2019-05-11T10:16:58.421Z,17.40
2019-05-11T10:19:28.436Z,17.60
2019-05-11T10:21:58.012Z,17.80
2019-05-11T10:24:28.347Z,17.90
2019-05-11T10:26:57.818Z,18.10
2019-05-11T10:29:28.730Z,17.80
2019-05-11T10:31:58.695Z,17.90
2019-05-11T10:34:28.476Z,18.00
2019-05-11T10:36:58.020Z,18.30
2019-05-11T10:39:27.964Z,18.50
2019-05-11T10:41:58.431Z,18.70
2019-05-11T10:44:28.082Z,18.90
2019-05-11T10:46:58.715Z,19.10
2019-05-11T10:49:28.942Z,19.10
2019-05-11T10:51:58.719Z,19.30
2019-05-11T10:54:28.722Z,19.60
2019-05-11T10:56:57.903Z,19.60
2019-05-11T10:59:28.245Z,19.70
2019-05-11T11:01:56.144Z,19.70
2019-05-11T11:04:24.730Z,19.80
2019-05-11T11:06:53.179Z,18.70
2019-05-11T11:09:21.630Z,18.60
2019-05-11T11:11:50.140Z,18.90
2019-05-11T11:14:18.670Z,19.60
2019-05-11T11:16:47.921Z,19.00
2019-05-11T11:19:18.355Z,19.40
2019-05-11T11:21:48.708Z,19.70
2019-05-11T11:24:18.011Z,20.10
2019-05-11T11:26:48.570Z,20.40
2019-05-11T11:29:17.923Z,20.60
2019-05-11T11:31:48.176Z,20.60
2019-05-11T11:34:16.073Z,20.50
2019-05-11T11:36:44.597Z,20.40
2019-05-11T11:39:13.053Z,20.40
2019-05-11T11:41:41.501Z,20.10
2019-05-11T11:44:10.000Z,19.90
2019-05-11T11:46:51.252Z,19.80
2019-05-11T11:49:08.613Z,19.20
2019-05-11T11:51:37.828Z,18.70
2019-05-11T11:54:08.520Z,18.60
2019-05-11T11:56:37.955Z,18.60
2019-05-11T11:59:08.516Z,18.00
2019-05-11T12:01:38.429Z,17.80
2019-05-11T12:04:08.265Z,17.70
2019-05-11T12:06:38.552Z,17.60
2019-05-11T12:09:08.812Z,17.70
2019-05-11T12:11:38.064Z,17.60
2019-05-11T12:14:08.744Z,17.80
2019-05-11T12:16:38.782Z,17.70
2019-05-11T12:19:08.462Z,17.70
2019-05-11T12:21:37.992Z,17.90
2019-05-11T12:24:08.200Z,17.90
2019-05-11T12:26:36.187Z,18.00
2019-05-11T12:29:04.646Z,17.70
2019-05-11T12:31:33.156Z,17.50
2019-05-11T12:34:01.606Z,17.30
2019-05-11T12:36:30.054Z,17.20
2019-05-11T12:38:58.541Z,17.30
2019-05-11T12:41:28.027Z,17.40
2019-05-11T12:43:57.759Z,17.40
2019-05-11T12:46:27.631Z,17.60
2019-05-11T12:48:57.283Z,17.70
2019-05-11T12:51:27.664Z,17.60
2019-05-11T12:53:57.640Z,17.60
2019-05-11T12:56:27.712Z,17.50
2019-05-11T12:58:58.208Z,17.40
2019-05-11T13:01:28.904Z,17.30
2019-05-11T13:03:58.078Z,17.40
2019-05-11T13:06:27.944Z,17.30
2019-05-11T13:08:58.603Z,17.40
2019-05-11T13:11:28.545Z,17.10
2019-05-11T13:13:58.573Z,17.00
2019-05-11T13:16:28.752Z,16.90
2019-05-11T13:18:57.747Z,16.70
2019-05-11T13:21:28.535Z,16.50
2019-05-11T13:23:57.673Z,16.60
2019-05-11T13:26:28.283Z,16.70
2019-05-11T13:28:58.434Z,16.60
2019-05-11T13:31:27.796Z,16.70
2019-05-11T13:33:58.347Z,16.50
2019-05-11T13:36:28.656Z,16.40
2019-05-11T13:38:58.793Z,16.30
2019-05-11T13:41:28.032Z,16.40
2019-05-11T13:43:57.668Z,16.50
2019-05-11T13:46:28.178Z,16.60
2019-05-11T13:48:57.977Z,16.30
2019-05-11T13:51:28.402Z,16.20
2019-05-11T13:53:58.472Z,16.00
2019-05-11T13:56:28.482Z,16.10
2019-05-11T13:58:58.115Z,16.00
2019-05-11T14:01:27.838Z,15.90
2019-05-11T14:03:58.496Z,15.90
2019-05-11T14:06:28.769Z,16.00
2019-05-11T14:08:58.673Z,15.70
2019-05-11T14:11:28.604Z,15.70
2019-05-11T14:13:58.511Z,15.80
2019-05-11T14:16:27.735Z,15.90
2019-05-11T14:18:57.862Z,16.10
2019-05-11T14:21:27.965Z,16.20
2019-05-11T14:23:58.652Z,16.00
2019-05-11T14:26:28.025Z,15.80
2019-05-11T14:28:58.262Z,15.90
2019-05-11T14:31:27.939Z,16.00
2019-05-11T14:33:57.895Z,16.10
2019-05-11T14:36:28.174Z,16.10
2019-05-11T14:38:57.789Z,15.90
2019-05-11T14:41:28.416Z,15.90
2019-05-11T14:43:57.986Z,15.80
2019-05-11T14:46:27.884Z,15.70
2019-05-11T14:48:58.372Z,15.50
2019-05-11T14:51:28.205Z,15.40
2019-05-11T14:53:59.497Z,15.50
2019-05-11T14:56:27.946Z,15.50
2019-05-11T14:58:57.992Z,15.60
2019-05-11T15:01:28.693Z,15.50
2019-05-11T15:03:58.895Z,15.50
2019-05-11T15:06:27.907Z,15.50
2019-05-11T15:08:58.210Z,15.50
2019-05-11T15:11:28.022Z,15.40
2019-05-11T15:13:57.568Z,15.40
2019-05-11T15:16:27.837Z,15.40
2019-05-11T15:18:58.463Z,15.10
2019-05-11T15:21:28.034Z,14.90
2019-05-11T15:23:58.049Z,15.00
2019-05-11T15:26:27.828Z,15.00
2019-05-11T15:28:58.454Z,15.10
2019-05-11T15:31:27.837Z,15.10
2019-05-11T15:33:57.716Z,14.90
2019-05-11T15:36:28.414Z,15.00
2019-05-11T15:38:58.230Z,14.90
2019-05-11T15:41:28.061Z,14.90
2019-05-11T15:43:57.902Z,14.80
2019-05-11T15:46:28.250Z,14.80
2019-05-11T15:49:03.148Z,14.80
2019-05-11T15:51:29.092Z,14.80
2019-05-11T15:53:58.694Z,14.70
2019-05-11T15:56:27.992Z,14.70
2019-05-11T15:58:57.853Z,14.70
2019-05-11T16:01:28.750Z,14.70
2019-05-11T16:03:58.301Z,14.70
2019-05-11T16:06:28.474Z,14.60
2019-05-11T16:08:58.611Z,14.40
2019-05-11T16:11:28.385Z,14.40
2019-05-11T16:13:58.621Z,14.30
2019-05-11T16:16:28.105Z,14.30
2019-05-11T16:19:10.185Z,14.20
2019-05-11T16:21:28.460Z,14.10
2019-05-11T16:23:58.482Z,14.10
2019-05-11T16:26:28.148Z,13.90
2019-05-11T16:28:58.181Z,13.80
2019-05-11T16:31:28.470Z,13.70
2019-05-11T16:33:58.755Z,13.60
2019-05-11T16:36:28.433Z,13.50
2019-05-11T16:38:56.769Z,13.50
2019-05-11T16:41:25.293Z,13.40
2019-05-11T16:43:53.734Z,13.40
2019-05-11T16:46:22.194Z,13.30
2019-05-11T16:48:50.899Z,13.30
2019-05-11T16:51:19.343Z,13.30
2019-05-11T16:53:48.128Z,13.30
2019-05-11T16:56:16.766Z,13.20
2019-05-11T16:58:45.231Z,13.20
2019-05-11T17:01:13.766Z,13.20
2019-05-11T17:03:42.211Z,13.30
2019-05-11T17:06:10.658Z,13.30
2019-05-11T17:08:39.165Z,13.20
2019-05-11T17:11:08.200Z,13.10
2019-05-11T17:13:37.971Z,13.10
2019-05-11T17:16:08.675Z,13.10
2019-05-11T17:18:36.928Z,13.10
2019-05-11T17:21:07.635Z,13.00
2019-05-11T17:23:38.058Z,13.10
2019-05-11T17:26:08.510Z,13.10
2019-05-11T17:28:37.870Z,13.10
2019-05-11T17:31:08.009Z,13.00
2019-05-11T17:33:38.435Z,13.00
2019-05-11T17:36:08.409Z,13.10
2019-05-11T17:38:39.009Z,13.10
2019-05-11T17:41:08.519Z,13.10
2019-05-11T17:43:38.645Z,13.10
2019-05-11T17:46:08.126Z,13.00
2019-05-11T17:48:38.878Z,13.00
2019-05-11T17:51:20.906Z,13.00
2019-05-11T17:53:37.807Z,12.90
2019-05-11T17:56:06.491Z,12.90
2019-05-11T17:58:37.671Z,12.80
2019-05-11T18:01:04.621Z,12.80
2019-05-11T18:03:33.078Z,12.80
2019-05-11T18:06:01.575Z,12.70
2019-05-11T18:08:30.987Z,12.70
2019-05-11T18:10:59.702Z,12.70
2019-05-11T18:13:28.580Z,12.60
2019-05-11T18:15:57.905Z,12.60
2019-05-11T18:18:28.877Z,12.60
2019-05-11T18:20:57.868Z,12.60
2019-05-11T18:23:28.295Z,12.60
2019-05-11T18:25:56.868Z,12.50
2019-05-11T18:28:25.360Z,12.50
2019-05-11T18:30:53.827Z,12.50
2019-05-11T18:33:22.376Z,12.40
2019-05-11T18:35:50.847Z,12.40
2019-05-11T18:38:19.422Z,12.30
2019-05-11T18:40:48.644Z,12.20
2019-05-11T18:43:18.816Z,12.10
2019-05-11T18:45:48.773Z,12.10
2019-05-11T18:48:18.543Z,12.00
2019-05-11T18:50:48.462Z,12.00
2019-05-11T18:53:18.638Z,11.90
2019-05-11T18:55:48.670Z,11.80
2019-05-11T18:58:18.442Z,11.80
2019-05-11T19:00:48.791Z,11.80
2019-05-11T19:03:19.220Z,11.70
2019-05-11T19:05:48.164Z,11.70
2019-05-11T19:08:18.948Z,11.60
2019-05-11T19:10:48.777Z,11.50
2019-05-11T19:13:17.227Z,11.40
2019-05-11T19:15:48.449Z,11.40
2019-05-11T19:18:15.228Z,11.40
2019-05-11T19:20:46.091Z,11.40
2019-05-11T19:23:13.941Z,11.30
2019-05-11T19:25:42.403Z,11.30
2019-05-11T19:28:10.901Z,11.20
2019-05-11T19:30:39.416Z,11.10
2019-05-11T19:33:11.055Z,11.10
2019-05-11T19:35:38.371Z,11.10
2019-05-11T19:38:08.654Z,11.00
2019-05-11T19:40:38.455Z,11.00
2019-05-11T19:43:08.234Z,11.00
2019-05-11T19:45:38.370Z,10.90
2019-05-11T19:48:08.429Z,10.90
2019-05-11T19:50:40.301Z,10.80
2019-05-11T19:53:08.484Z,10.80
2019-05-11T19:55:37.316Z,10.70
2019-05-11T19:58:05.881Z,10.70
2019-05-11T20:00:34.401Z,10.70
2019-05-11T20:03:03.064Z,10.70
2019-05-11T20:05:31.574Z,10.70
2019-05-11T20:08:00.103Z,10.70
2019-05-11T20:10:28.568Z,10.70
2019-05-11T20:12:58.786Z,10.60
2019-05-11T20:15:27.325Z,10.60
2019-05-11T20:17:55.775Z,10.60
2019-05-11T20:20:24.230Z,10.60
2019-05-11T20:22:52.785Z,10.60
2019-05-11T20:25:21.228Z,10.60
2019-05-11T20:27:49.686Z,10.50
2019-05-11T20:30:19.383Z,10.40
2019-05-11T20:32:48.920Z,10.40
2019-05-11T20:35:17.723Z,10.40
2019-05-11T20:37:46.278Z,10.30
2019-05-11T20:40:15.474Z,10.30
2019-05-11T20:42:43.993Z,10.30
2019-05-11T20:45:12.681Z,10.20
2019-05-11T20:47:41.423Z,10.20
2019-05-11T20:50:10.200Z,10.10
2019-05-11T20:52:40.035Z,10.10
2019-05-11T20:55:09.163Z,10.10
2019-05-11T20:57:39.355Z,10.10
2019-05-11T21:00:14.121Z,10.00
2019-05-11T21:02:42.573Z,10.00
2019-05-11T21:05:11.022Z,10.00
2019-05-11T21:07:39.610Z,10.00
2019-05-11T21:10:09.039Z,10.00
2019-05-11T21:12:38.646Z,9.90
2019-05-11T21:15:09.302Z,9.90
2019-05-11T21:17:37.825Z,9.90
2019-05-11T21:20:10.029Z,9.90
2019-05-11T21:22:40.671Z,9.90
2019-05-11T21:25:10.995Z,9.90
2019-05-11T21:27:39.448Z,9.90
2019-05-11T21:30:09.742Z,9.90
2019-05-11T21:32:38.348Z,9.90
2019-05-11T21:35:08.825Z,9.90
2019-05-11T21:37:38.714Z,9.90
2019-05-11T21:40:08.927Z,9.90
2019-05-11T21:42:38.890Z,9.90
2019-05-11T21:45:09.438Z,9.80
2019-05-11T21:47:38.982Z,9.90
2019-05-11T21:50:09.050Z,9.90
2019-05-11T21:52:38.538Z,9.80
2019-05-11T21:55:09.369Z,9.90
2019-05-11T21:57:38.544Z,9.80
2019-05-11T22:00:10.290Z,9.90
2019-05-11T22:02:39.052Z,9.90
2019-05-11T22:05:09.337Z,9.80
2019-05-11T22:07:38.833Z,9.80
2019-05-11T22:10:10.167Z,9.80
2019-05-11T22:12:39.366Z,9.80
2019-05-11T22:15:11.621Z,9.80
2019-05-11T22:17:40.145Z,9.80
2019-05-11T22:20:09.466Z,9.80
2019-05-11T22:22:38.865Z,9.80
2019-05-11T22:25:09.017Z,9.80
2019-05-11T22:27:38.890Z,9.80
2019-05-11T22:30:11.449Z,9.80
2019-05-11T22:32:39.899Z,9.80
2019-05-11T22:35:09.465Z,9.70
2019-05-11T22:37:39.074Z,9.70
2019-05-11T22:40:08.948Z,9.70
2019-05-11T22:42:37.800Z,9.60
2019-05-11T22:45:08.766Z,9.60
2019-05-11T22:47:39.142Z,9.60
2019-05-11T22:50:09.379Z,9.50
2019-05-11T22:52:40.414Z,9.50
2019-05-11T22:55:11.917Z,9.50
2019-05-11T22:57:39.202Z,9.50
2019-05-11T23:00:09.587Z,9.50
2019-05-11T23:02:38.371Z,9.50
2019-05-11T23:05:08.419Z,9.50
2019-05-11T23:07:41.187Z,9.50
2019-05-11T23:10:09.505Z,9.50
2019-05-11T23:12:38.547Z,9.50
2019-05-11T23:15:09.968Z,9.50
2019-05-11T23:17:38.834Z,9.40
2019-05-11T23:20:07.935Z,9.50
2019-05-11T23:22:51.209Z,9.50
2019-05-11T23:25:08.490Z,9.60
2019-05-11T23:27:39.206Z,9.50
2019-05-11T23:30:08.724Z,9.60
2019-05-11T23:32:37.807Z,9.60
2019-05-11T23:35:08.414Z,9.60
2019-05-11T23:37:38.712Z,9.60
2019-05-11T23:40:10.065Z,9.60
2019-05-11T23:42:38.509Z,9.60
2019-05-11T23:45:08.866Z,9.60
2019-05-11T23:47:38.997Z,9.60
2019-05-11T23:50:08.145Z,9.50
2019-05-11T23:52:37.977Z,9.50
2019-05-11T23:55:08.381Z,9.60
2019-05-11T23:57:37.963Z,9.50
